Time;durP1;ratioP1;P1;durP2;ratioP2;P2;SDS_P1;SDS_P2;PMS_P1;PMS_P2;Temp;Humidity;BMP_temperature;BMP_pressure;BME280_temperature;BME280_humidity;BME280_pressure;Samples;Min_cycle;Max_cycle;Signal;HPM_P1;HPM_P2
2022/02/05 00:00:28;;;;;;;35.83;16.67;;;2.30;99.90;;;;;;5056511;28;20623;-82
2022/02/05 00:03:18;;;;;;;44.70;18.50;;;2.90;99.90;;;;;;5055119;28;20207;-81
2022/02/05 00:05:52;;;;;;;39.17;18.47;;;2.10;99.90;;;;;;5055978;28;20183;-81
2022/02/05 00:08:44;;;;;;;31.63;17.43;;;4.30;99.90;;;;;;5055184;28;20186;-81
2022/02/05 00:43:09;;;;;;;32.33;17.03;;;2.20;99.90;;;;;;5055741;28;20221;-81
2022/02/05 00:45:39;;;;;;;31.27;15.13;;;3.50;99.90;;;;;;5056243;28;20266;-84
2022/02/05 00:48:06;;;;;;;33.10;16.00;;;2.40;99.90;;;;;;5060804;28;20202;-81
2022/02/05 00:50:35;;;;;;;30.03;14.90;;;2.30;99.90;;;;;;5024696;28;20552;-81
2022/02/05 00:53:06;;;;;;;33.80;15.93;;;2.20;99.90;;;;;;5037858;28;20230;-81
2022/02/05 00:55:36;;;;;;;36.70;15.10;;;2.20;99.90;;;;;;5038621;28;20279;-81
2022/02/05 00:58:03;;;;;;;38.87;16.47;;;2.20;99.90;;;;;;5054186;28;20203;-81
2022/02/05 01:00:30;;;;;;;33.97;15.73;;;2.20;99.90;;;;;;5037482;28;20210;-81
2022/02/05 01:02:57;;;;;;;29.33;14.90;;;2.10;99.90;;;;;;5053783;28;20338;-81
2022/02/05 01:05:22;;;;;;;35.20;15.73;;;2.20;99.90;;;;;;5053853;28;20178;-81
2022/02/05 01:07:49;;;;;;;26.20;14.17;;;2.40;99.90;;;;;;5053915;28;20571;-81
2022/02/05 01:10:15;;;;;;;30.03;15.83;;;2.00;99.90;;;;;;5055421;28;20234;-81
2022/02/05 01:12:47;;;;;;;29.77;14.60;;;2.20;99.90;;;;;;5054975;28;20176;-81
2022/02/05 01:15:13;;;;;;;27.57;14.37;;;2.30;99.90;;;;;;5038116;28;20636;-81
2022/02/05 01:17:45;;;;;;;29.97;15.57;;;2.20;99.90;;;;;;5020889;28;20187;-82
2022/02/05 01:20:38;;;;;;;29.37;14.70;;;2.70;99.90;;;;;;5054161;28;20233;-81
2022/02/05 01:23:01;;;;;;;30.43;13.80;;;2.30;99.90;;;;;;5053536;28;20680;-81
2022/02/05 01:25:32;;;;;;;28.30;13.13;;;4.20;99.90;;;;;;5055557;28;20179;-80
2022/02/05 01:28:05;;;;;;;25.27;13.53;;;2.20;99.90;;;;;;5053610;28;20242;-81
2022/02/05 01:30:35;;;;;;;23.80;12.97;;;2.20;99.90;;;;;;5054014;28;20199;-80
2022/02/05 01:33:12;;;;;;;26.97;13.97;;;2.60;99.90;;;;;;5038005;28;20212;-81
2022/02/05 01:57:08;;;;;;;24.73;13.07;;;1.90;99.90;;;;;;5054366;28;20242;-82
2022/02/05 02:10:54;;;;;;;23.03;13.10;;;2.20;99.90;;;;;;5051654;28;20191;-81
2022/02/05 02:19:33;;;;;;;22.50;12.00;;;2.90;99.90;;;;;;5073579;28;20195;-80
2022/02/05 02:26:39;;;;;;;20.00;11.70;;;2.50;99.90;;;;;;5054120;28;20219;-81
2022/02/05 02:29:10;;;;;;;23.53;12.67;;;;;;;;;;5052346;28;20357;-81
2022/02/05 02:31:44;;;;;;;18.53;10.87;;;2.40;99.90;;;;;;5052859;28;20187;-81
2022/02/05 02:34:15;;;;;;;21.90;11.17;;;;;;;;;;5052414;28;20278;-81
2022/02/05 02:39:21;;;;;;;21.13;11.50;;;2.40;99.90;;;;;;5052321;28;20223;-81
2022/02/05 02:41:55;;;;;;;21.17;11.17;;;2.60;99.90;;;;;;5023016;28;20190;-84
2022/02/05 02:44:21;;;;;;;23.10;11.67;;;2.50;99.90;;;;;;5052199;28;20262;-81
2022/02/05 02:46:47;;;;;;;19.30;11.27;;;3.70;99.90;;;;;;5052029;28;20226;-83
2022/02/05 02:49:19;;;;;;;21.83;11.50;;;;;;;;;;5052334;28;20183;-81
2022/02/05 02:59:51;;;;;;;21.67;10.83;;;2.50;99.90;;;;;;5051975;28;20275;-81
2022/02/05 03:02:20;;;;;;;18.33;10.33;;;2.60;99.90;;;;;;5052001;28;20206;-81
2022/02/05 03:04:47;;;;;;;18.30;11.20;;;2.50;99.90;;;;;;5053485;28;20227;-81
2022/02/05 03:07:13;;;;;;;18.00;11.33;;;;;;;;;;5052748;28;20294;-81
2022/02/05 03:09:39;;;;;;;19.27;11.37;;;2.50;99.90;;;;;;5053026;28;20187;-81
2022/02/05 03:12:06;;;;;;;22.60;11.30;;;2.10;99.90;;;;;;5051409;28;20242;-81
2022/02/05 03:14:31;;;;;;;22.10;10.43;;;2.50;99.90;;;;;;5051929;28;20180;-81
2022/02/05 03:17:04;;;;;;;20.03;11.00;;;2.80;99.90;;;;;;5051596;28;20188;-81
2022/02/05 03:19:30;;;;;;;21.33;11.53;;;2.70;99.90;;;;;;5052000;28;20211;-80
2022/02/05 03:21:55;;;;;;;19.07;11.27;;;3.10;99.90;;;;;;5050361;28;20585;-81
2022/02/05 03:24:21;;;;;;;21.13;11.10;;;;;;;;;;5034929;28;20628;-81
2022/02/05 03:26:47;;;;;;;19.27;10.60;;;2.50;99.90;;;;;;5051731;28;20639;-81
2022/02/05 03:29:13;;;;;;;21.40;10.53;;;4.00;99.90;;;;;;5034972;28;20198;-81
2022/02/05 03:31:39;;;;;;;19.73;11.30;;;2.90;99.90;;;;;;5035277;28;20241;-81
2022/02/05 03:34:06;;;;;;;16.57;10.07;;;2.50;99.90;;;;;;5051424;28;20636;-81
2022/02/05 03:36:36;;;;;;;17.97;10.87;;;3.10;99.90;;;;;;5052949;28;20184;-81
2022/02/05 03:39:04;;;;;;;21.00;11.23;;;2.50;99.90;;;;;;5052480;28;20178;-81
2022/02/05 03:41:30;;;;;;;22.97;11.27;;;2.50;99.90;;;;;;5051709;28;20646;-81
2022/02/05 03:43:55;;;;;;;18.07;10.33;;;2.50;99.90;;;;;;5050986;28;20218;-81
2022/02/05 03:46:21;;;;;;;20.10;10.33;;;2.40;99.90;;;;;;5053095;28;20180;-81
2022/02/05 03:48:46;;;;;;;20.53;11.43;;;2.30;99.90;;;;;;5051581;28;20184;-81
2022/02/05 03:51:12;;;;;;;19.13;10.63;;;2.40;99.90;;;;;;5051013;28;20186;-81
2022/02/05 03:53:38;;;;;;;19.93;11.03;;;3.60;99.90;;;;;;5052375;28;20233;-81
2022/02/05 03:56:03;;;;;;;19.87;10.93;;;2.40;99.90;;;;;;5034571;28;20275;-81
2022/02/05 03:58:29;;;;;;;19.13;10.67;;;2.40;99.90;;;;;;5051494;28;20185;-81
2022/02/05 04:00:55;;;;;;;20.43;10.60;;;2.40;99.90;;;;;;5051186;28;20185;-81
2022/02/05 04:03:20;;;;;;;22.50;11.53;;;3.90;99.90;;;;;;5034570;28;20217;-81
2022/02/05 04:05:46;;;;;;;100.27;37.77;;;2.40;99.90;;;;;;5051701;28;20188;-81
2022/02/05 04:08:13;;;;;;;41.17;16.50;;;2.40;99.90;;;;;;5050912;28;20191;-82
2022/02/05 04:10:50;;;;;;;16.37;8.27;;;2.40;99.90;;;;;;5035095;28;20247;-81
2022/02/05 04:18:57;;;;;;;20.57;12.37;;;2.60;99.90;;;;;;5047024;28;20203;-81
2022/02/05 04:21:23;;;;;;;27.00;15.63;;;2.60;99.90;;;;;;5050978;28;20263;-82
2022/02/05 04:23:50;;;;;;;26.23;12.77;;;;;;;;;;5034497;28;20221;-81
2022/02/05 04:26:16;;;;;;;23.27;13.97;;;2.50;99.90;;;;;;5050666;28;20202;-82
2022/02/05 04:28:42;;;;;;;20.87;11.67;;;2.60;99.90;;;;;;5050863;28;20660;-81
2022/02/05 04:31:09;;;;;;;23.80;14.33;;;2.70;99.90;;;;;;5034020;28;20188;-82
2022/02/05 04:33:35;;;;;;;19.57;11.10;;;2.60;99.90;;;;;;5036155;28;20192;-80
2022/02/05 04:36:01;;;;;;;21.77;10.07;;;2.70;99.90;;;;;;5038085;28;20677;-81
2022/02/05 04:38:28;;;;;;;22.63;10.47;;;;;;;;;;5038168;28;20194;-81
2022/02/05 04:40:59;;;;;;;17.43;11.10;;;;;;;;;;5054668;28;20221;-81
2022/02/05 04:49:11;;;;;;;15.80;9.37;;;3.00;99.90;;;;;;5054674;28;20196;-80
2022/02/05 04:52:27;;;;;;;18.57;10.60;;;2.80;99.90;;;;;;5055483;28;20188;-81
2022/02/05 04:57:09;;;;;;;15.13;9.20;;;2.80;99.90;;;;;;5054667;28;20185;-80
2022/02/05 05:11:35;;;;;;;9.83;5.87;;;4.30;99.90;;;;;;5054705;28;20217;-81
2022/02/05 05:13:21;;;;;;;20.90;10.83;;;3.10;99.90;;;;;;5047040;28;20193;-81
2022/02/05 05:21:03;;;;;;;17.57;9.03;;;3.20;99.90;;;;;;5054499;28;20197;-82
2022/02/05 05:23:28;;;;;;;14.77;9.83;;;3.10;99.90;;;;;;5036793;28;20215;-81
2022/02/05 05:25:54;;;;;;;16.23;9.87;;;3.10;99.90;;;;;;5037229;28;20218;-81
2022/02/05 05:28:20;;;;;;;22.63;11.13;;;3.00;99.90;;;;;;5036951;28;20182;-81
2022/02/05 05:30:45;;;;;;;16.70;9.97;;;3.00;99.90;;;;;;5020734;28;20191;-81
2022/02/05 05:33:12;;;;;;;21.80;11.13;;;2.70;99.90;;;;;;5036775;28;20219;-81
2022/02/05 05:35:38;;;;;;;21.37;10.97;;;2.90;99.90;;;;;;5054775;28;20187;-81
2022/02/05 05:38:03;;;;;;;19.17;11.20;;;2.90;99.90;;;;;;5053512;28;20259;-81
2022/02/05 05:40:30;;;;;;;21.03;11.93;;;2.90;99.90;;;;;;5036789;28;20188;-81
2022/02/05 05:43:03;;;;;;;23.30;12.20;;;;;;;;;;5053565;28;20226;-81
2022/02/05 05:48:06;;;;;;;20.27;11.37;;;2.80;99.90;;;;;;5053501;28;20185;-81
2022/02/05 05:53:00;;;;;;;19.10;11.00;;;2.80;99.90;;;;;;5054363;28;20712;-80
2022/02/05 05:55:26;;;;;;;12.03;7.67;;;2.80;99.90;;;;;;5053414;28;20266;-81
2022/02/05 05:57:53;;;;;;;18.93;11.90;;;2.90;99.90;;;;;;5053153;28;20219;-81
2022/02/05 06:00:19;;;;;;;18.57;11.07;;;2.70;99.90;;;;;;5052804;28;20286;-81
2022/02/05 06:02:45;;;;;;;13.70;7.83;;;2.80;99.90;;;;;;5052868;28;20735;-82
2022/02/05 06:05:10;;;;;;;21.43;11.00;;;2.90;99.90;;;;;;5070844;28;20259;-83
2022/02/05 06:07:36;;;;;;;20.90;12.37;;;;;;;;;;5072380;28;20193;-84
2022/02/05 06:10:02;;;;;;;18.60;11.43;;;2.80;99.90;;;;;;5052436;28;20203;-82
2022/02/05 06:12:28;;;;;;;19.13;11.67;;;2.90;99.90;;;;;;5050145;28;20249;-83
2022/02/05 06:14:54;;;;;;;21.27;11.90;;;;;;;;;;5017338;28;20292;-82
2022/02/05 06:17:24;;;;;;;23.47;12.53;;;3.00;99.90;;;;;;5049497;28;20201;-82
2022/02/05 06:19:50;;;;;;;19.23;10.43;;;3.10;99.90;;;;;;5050644;28;20194;-82
2022/02/05 06:22:16;;;;;;;18.40;10.73;;;3.10;99.90;;;;;;5051294;28;20219;-83
2022/02/05 06:24:42;;;;;;;20.93;10.50;;;;;;;;;;5050014;28;20179;-82
2022/02/05 06:27:08;;;;;;;20.87;11.03;;;;;;;;;;5049704;28;20223;-84
2022/02/05 06:29:34;;;;;;;20.90;11.43;;;3.30;99.90;;;;;;5046253;28;20342;-83
2022/02/05 06:32:00;;;;;;;17.33;10.17;;;3.30;99.90;;;;;;5032297;28;20728;-82
2022/02/05 06:34:26;;;;;;;16.47;9.87;;;3.50;99.90;;;;;;5046982;28;20180;-83
2022/02/05 06:36:52;;;;;;;19.23;10.00;;;3.60;99.90;;;;;;5033658;28;20288;-82
2022/02/05 06:39:19;;;;;;;18.00;10.77;;;3.70;99.90;;;;;;5047215;28;20241;-82
2022/02/05 06:41:44;;;;;;;20.37;11.00;;;3.70;99.90;;;;;;5013858;28;20267;-83
2022/02/05 06:44:11;;;;;;;19.93;11.50;;;3.70;99.90;;;;;;5050408;28;20711;-82
2022/02/05 06:46:37;;;;;;;18.10;10.37;;;;;;;;;;5049833;28;20180;-81
2022/02/05 06:49:03;;;;;;;21.23;10.23;;;3.80;99.90;;;;;;5047862;28;20217;-81
2022/02/05 06:51:29;;;;;;;13.93;6.53;;;3.90;99.90;;;;;;5049667;28;20177;-83
2022/02/05 06:53:57;;;;;;;17.27;10.13;;;4.20;99.90;;;;;;5031343;28;20250;-82
2022/02/05 06:56:23;;;;;;;17.90;9.00;;;3.90;99.90;;;;;;5044636;28;20269;-82
2022/02/05 06:58:49;;;;;;;15.37;8.33;;;3.90;99.90;;;;;;5038348;28;20657;-81
2022/02/05 07:01:15;;;;;;;10.33;7.60;;;3.90;99.90;;;;;;5056413;28;20195;-82
2022/02/05 07:03:40;;;;;;;18.40;9.80;;;3.90;99.90;;;;;;5054884;28;20618;-82
2022/02/05 07:06:06;;;;;;;14.23;8.67;;;3.90;99.90;;;;;;5038262;28;20199;-81
2022/02/05 07:08:33;;;;;;;15.43;8.10;;;4.00;99.90;;;;;;5036188;28;20181;-81
2022/02/05 07:10:59;;;;;;;11.70;6.90;;;4.20;99.90;;;;;;5057560;28;20197;-82
2022/02/05 07:13:25;;;;;;;5.93;4.27;;;5.30;99.90;;;;;;5059606;28;20655;-82
2022/02/05 07:18:45;;;;;;;7.50;3.97;;;;;;;;;;5039425;28;20201;-81
2022/02/05 07:21:30;;;;;;;3.70;2.80;;;4.30;99.90;;;;;;5042352;28;20195;-80
2022/02/05 07:29:16;;;;;;;1.43;1.33;;;;;;;;;;5061584;28;20566;-82
2022/02/05 07:31:54;;;;;;;3.80;1.33;;;4.80;99.90;;;;;;5048774;28;20229;-82
2022/02/05 07:34:22;;;;;;;1.47;1.37;;;3.90;99.90;;;;;;5050043;28;20187;-79
2022/02/05 07:36:49;;;;;;;2.23;1.43;;;3.90;99.90;;;;;;5052034;28;20174;-84
2022/02/05 07:39:16;;;;;;;1.43;1.30;;;3.90;99.90;;;;;;5052888;28;20177;-83
2022/02/05 07:41:42;;;;;;;1.30;1.20;;;3.90;99.90;;;;;;5052284;28;20190;-79
2022/02/05 07:44:13;;;;;;;1.33;1.23;;;3.90;99.90;;;;;;5051151;28;20243;-81
2022/02/05 07:46:40;;;;;;;1.93;1.40;;;3.80;99.90;;;;;;5052536;28;20229;-81
2022/02/05 07:49:06;;;;;;;1.50;1.20;;;4.00;99.90;;;;;;5052770;28;20210;-80
2022/02/05 07:51:32;;;;;;;1.90;1.60;;;;;;;;;;5051583;28;20719;-82
2022/02/05 07:53:58;;;;;;;2.10;1.40;;;4.00;99.90;;;;;;5052296;28;20718;-81
2022/02/05 07:56:25;;;;;;;1.33;1.13;;;4.10;99.90;;;;;;5051388;28;20190;-81
2022/02/05 07:58:51;;;;;;;3.80;1.70;;;;;;;;;;5034930;28;20181;-82
2022/02/05 08:01:17;;;;;;;1.20;1.10;;;;;;;;;;5052527;28;20195;-80
2022/02/05 08:03:43;;;;;;;2.13;1.87;;;3.90;99.90;;;;;;5052327;28;20212;-81
2022/02/05 08:06:15;;;;;;;2.63;1.33;;;3.90;99.90;;;;;;5064008;28;20180;-82
2022/02/05 08:08:41;;;;;;;2.57;1.70;;;4.10;99.90;;;;;;5066482;28;20231;-83
2022/02/05 08:11:11;;;;;;;2.93;1.80;;;4.30;99.90;;;;;;5067143;28;20175;-83
2022/02/05 08:13:36;;;;;;;3.40;1.80;;;4.00;99.90;;;;;;5065252;28;20184;-81
2022/02/05 08:16:26;;;;;;;2.33;1.63;;;4.00;99.90;;;;;;5051981;28;20348;-81
2022/02/05 08:18:51;;;;;;;3.33;2.20;;;4.00;99.90;;;;;;5063947;28;20264;-81
2022/02/05 08:21:17;;;;;;;6.30;2.07;;;;;;;;;;5040982;28;20214;-81
2022/02/05 08:23:43;;;;;;;2.47;1.83;;;3.70;99.90;;;;;;5055317;28;20547;-81
2022/02/05 08:26:09;;;;;;;3.00;1.60;;;3.70;99.90;;;;;;5047814;28;20205;-81
2022/02/05 08:28:35;;;;;;;3.00;1.93;;;4.00;99.90;;;;;;5064611;28;20184;-81
2022/02/05 08:31:01;;;;;;;2.67;1.83;;;4.40;99.90;;;;;;5048157;28;20182;-81
2022/02/05 08:33:27;;;;;;;1.57;1.43;;;4.10;99.90;;;;;;5049371;28;20538;-80
2022/02/05 08:35:53;;;;;;;2.60;1.90;;;4.00;99.90;;;;;;5038119;28;20180;-81
2022/02/05 08:38:19;;;;;;;4.00;1.80;;;4.10;99.90;;;;;;5064033;28;20182;-80
2022/02/05 08:40:46;;;;;;;4.57;1.60;;;4.20;99.90;;;;;;5038306;28;20324;-82
2022/02/05 08:43:12;;;;;;;4.77;1.93;;;;;;;;;;5062437;28;20235;-82
2022/02/05 08:45:39;;;;;;;2.73;1.97;;;4.00;99.90;;;;;;5055709;28;20327;-82
2022/02/05 08:48:06;;;;;;;6.47;1.77;;;4.00;99.90;;;;;;5053743;28;20179;-81
2022/02/05 08:50:32;;;;;;;2.47;1.87;;;3.90;99.90;;;;;;5054090;28;20184;-82
2022/02/05 08:52:58;;;;;;;2.27;1.70;;;3.90;99.90;;;;;;5055179;28;20244;-83
2022/02/05 08:55:28;;;;;;;3.73;2.43;;;3.70;99.90;;;;;;5055487;28;20609;-81
2022/02/05 08:57:55;;;;;;;3.57;2.30;;;3.80;99.90;;;;;;5054070;28;20172;-82
2022/02/05 09:00:25;;;;;;;3.20;2.27;;;3.90;99.90;;;;;;5055600;28;20189;-81
2022/02/05 09:03:05;;;;;;;4.20;2.30;;;3.90;99.90;;;;;;5056338;28;20222;-81
2022/02/05 09:05:47;;;;;;;5.40;2.27;;;;;;;;;;5055521;28;20236;-82
2022/02/05 09:08:30;;;;;;;3.83;2.37;;;;;;;;;;5055296;28;20177;-81
2022/02/05 09:11:47;;;;;;;3.47;2.47;;;4.00;99.90;;;;;;5054158;28;20191;-81
2022/02/05 09:16:33;;;;;;;3.67;2.23;;;4.10;99.90;;;;;;5055333;28;20557;-81
2022/02/05 09:18:58;;;;;;;3.47;2.43;;;4.10;99.90;;;;;;5053057;28;20183;-80
2022/02/05 09:21:26;;;;;;;7.70;2.10;;;4.20;99.90;;;;;;5061026;28;20532;-81
2022/02/05 09:23:54;;;;;;;4.63;2.20;;;4.00;99.90;;;;;;5037020;28;20211;-82
2022/02/05 09:26:20;;;;;;;2.80;2.10;;;4.10;99.90;;;;;;5053396;28;20262;-80
2022/02/05 09:28:47;;;;;;;3.03;2.07;;;;;;;;;;5054315;28;20735;-80
2022/02/05 09:31:26;;;;;;;4.10;2.30;;;3.60;99.90;;;;;;5055479;28;20223;-80
2022/02/05 09:33:51;;;;;;;3.83;2.10;;;3.80;99.90;;;;;;5053197;28;20229;-80
2022/02/05 09:36:17;;;;;;;4.53;2.10;;;;;;;;;;5035467;28;20214;-81
2022/02/05 09:38:43;;;;;;;3.53;1.90;;;3.90;99.90;;;;;;5054295;28;20669;-80
2022/02/05 09:41:09;;;;;;;4.47;2.27;;;3.90;99.90;;;;;;5036803;28;20405;-81
2022/02/05 09:43:34;;;;;;;9.77;2.43;;;3.80;99.90;;;;;;5053852;28;20260;-81
2022/02/05 09:46:00;;;;;;;2.30;2.00;;;3.90;99.90;;;;;;5052893;28;20182;-81
2022/02/05 09:48:29;;;;;;;7.53;3.07;;;3.90;99.90;;;;;;5026030;28;20198;-79
2022/02/05 09:50:56;;;;;;;12.73;4.33;;;4.10;99.90;;;;;;5051357;28;20545;-80
2022/02/05 09:53:22;;;;;;;22.80;7.03;;;4.00;99.90;;;;;;5067998;28;20261;-81
2022/02/05 09:55:50;;;;;;;11.97;4.80;;;3.90;99.90;;;;;;5053555;28;20186;-81
2022/02/05 09:58:17;;;;;;;7.73;4.53;;;3.90;99.90;;;;;;5053055;28;20222;-80
2022/02/05 10:01:14;;;;;;;8.13;4.27;;;3.90;99.90;;;;;;5053477;28;20562;-81
2022/02/05 10:03:43;;;;;;;12.87;6.60;;;3.90;99.90;;;;;;5054796;28;20211;-81
2022/02/05 10:06:12;;;;;;;7.03;4.20;;;3.90;99.90;;;;;;5053163;28;20206;-82
2022/02/05 10:08:41;;;;;;;9.30;3.47;;;3.90;99.90;;;;;;5052931;28;20181;-81
2022/02/05 10:11:07;;;;;;;5.30;3.03;;;3.90;99.90;;;;;;5054108;28;20179;-80
2022/02/05 10:13:33;;;;;;;7.87;2.70;;;3.90;99.90;;;;;;5054315;28;20186;-81
2022/02/05 10:15:59;;;;;;;2.57;2.33;;;3.90;99.90;;;;;;5053969;28;20260;-81
2022/02/05 10:18:31;;;;;;;3.83;2.30;;;3.90;99.90;;;;;;5036271;28;20184;-81
2022/02/05 10:20:59;;;;;;;14.30;2.83;;;3.80;99.90;;;;;;5056978;28;20632;-80
2022/02/05 10:23:26;;;;;;;4.47;2.50;;;3.80;99.90;;;;;;5061139;28;20220;-81
2022/02/05 10:25:54;;;;;;;4.17;2.60;;;4.00;99.90;;;;;;5060374;28;20183;-82
2022/02/05 10:28:20;;;;;;;5.57;2.37;;;4.00;99.90;;;;;;5053195;28;20222;-80
2022/02/05 10:30:50;;;;;;;5.97;2.53;;;4.30;99.90;;;;;;5056745;28;20203;-80
2022/02/05 10:33:33;;;;;;;7.23;3.23;;;4.10;99.90;;;;;;5054289;28;20609;-81
2022/02/05 10:36:09;;;;;;;5.27;2.80;;;4.20;99.90;;;;;;5052446;28;20549;-81
2022/02/05 10:43:54;;;;;;;6.13;2.57;;;;;;;;;;5052948;28;20210;-83
2022/02/05 10:46:20;;;;;;;5.07;2.40;;;4.20;99.90;;;;;;5058533;28;20259;-81
2022/02/05 10:48:46;;;;;;;5.60;2.60;;;4.10;99.90;;;;;;5053436;28;20172;-81
2022/02/05 10:51:13;;;;;;;5.33;2.03;;;4.20;99.90;;;;;;5051928;28;20200;-82
2022/02/05 10:53:54;;;;;;;3.20;2.43;;;4.10;99.90;;;;;;5052038;28;20238;-83
2022/02/05 10:59:35;;;;;;;8.87;4.07;;;4.00;99.90;;;;;;5073523;28;20176;-82
2022/02/05 11:07:15;;;;;;;5.07;2.90;;;4.00;99.90;;;;;;5033696;28;20187;-80
2022/02/05 11:09:46;;;;;;;7.17;3.50;;;4.10;99.90;;;;;;5049028;28;20237;-80
2022/02/05 11:20:21;;;;;;;6.73;3.00;;;4.20;99.90;;;;;;5059237;28;20355;-82
2022/02/05 11:22:51;;;;;;;4.73;2.50;;;4.20;99.90;;;;;;5066552;28;20226;-80
2022/02/05 11:25:18;;;;;;;8.97;3.97;;;4.10;99.90;;;;;;5054923;28;20208;-81
2022/02/05 11:27:52;;;;;;;8.30;3.90;;;4.00;99.90;;;;;;5054663;28;20608;-82
2022/02/05 11:30:29;;;;;;;13.30;2.67;;;4.00;99.90;;;;;;5052449;28;20186;-81
2022/02/05 11:33:00;;;;;;;5.40;2.83;;;4.00;99.90;;;;;;5052569;28;20621;-82
2022/02/05 11:35:41;;;;;;;5.53;2.63;;;3.90;99.90;;;;;;5051736;28;20174;-82
2022/02/05 11:38:09;;;;;;;7.07;3.10;;;3.90;99.90;;;;;;5051950;28;20221;-82
2022/02/05 11:40:41;;;;;;;5.87;2.73;;;4.00;99.90;;;;;;5034636;28;20187;-82
2022/02/05 11:43:34;;;;;;;5.60;3.57;;;4.00;99.90;;;;;;5050446;28;20233;-82
2022/02/05 11:46:18;;;;;;;5.77;2.67;;;4.20;99.90;;;;;;5048852;28;20222;-82
2022/02/05 11:48:59;;;;;;;4.63;2.37;;;4.30;99.90;;;;;;5051424;28;20186;-82
2022/02/05 11:51:28;;;;;;;7.63;2.90;;;4.30;99.90;;;;;;5051600;28;20264;-82
2022/02/05 11:53:59;;;;;;;10.90;2.87;;;4.30;99.90;;;;;;5058565;28;20278;-83
2022/02/05 11:56:48;;;;;;;3.33;2.70;;;4.40;99.90;;;;;;5065933;28;20180;-80
2022/02/05 11:59:15;;;;;;;9.20;3.10;;;4.70;99.90;;;;;;5051265;28;20183;-83
2022/02/05 12:01:42;;;;;;;9.60;2.67;;;4.90;99.90;;;;;;5051096;28;20191;-81
2022/02/05 12:04:29;;;;;;;9.70;3.10;;;4.70;99.90;;;;;;5051334;28;20233;-82
2022/02/05 12:07:06;;;;;;;5.67;3.17;;;4.60;99.90;;;;;;5052866;28;20168;-81
2022/02/05 12:09:35;;;;;;;8.63;3.50;;;4.70;99.90;;;;;;5052676;28;20182;-81
2022/02/05 12:12:22;;;;;;;7.07;3.13;;;4.70;99.90;;;;;;5051202;28;20543;-83
2022/02/05 12:15:13;;;;;;;7.70;2.97;;;4.70;99.90;;;;;;5052782;28;20263;-81
2022/02/05 12:20:54;;;;;;;6.30;3.30;;;4.80;99.90;;;;;;5053195;28;20300;-82
2022/02/05 12:23:31;;;;;;;6.30;3.07;;;4.80;99.90;;;;;;5053177;28;20665;-81
2022/02/05 12:25:57;;;;;;;4.67;3.13;;;4.90;99.90;;;;;;5023022;28;20222;-84
2022/02/05 12:28:28;;;;;;;6.77;2.60;;;4.90;99.90;;;;;;5067642;28;20188;-84
2022/02/05 12:31:05;;;;;;;5.70;3.00;;;4.70;99.90;;;;;;5061594;28;20212;-83
2022/02/05 12:33:45;;;;;;;7.37;3.00;;;4.40;99.90;;;;;;5046353;28;20190;-82
2022/02/05 12:36:13;;;;;;;9.40;3.53;;;4.40;99.90;;;;;;5063555;28;20219;-82
2022/02/05 12:38:43;;;;;;;5.67;3.40;;;4.40;99.90;;;;;;5043941;28;20186;-82
2022/02/05 12:41:11;;;;;;;8.67;2.90;;;4.40;99.90;;;;;;5060097;28;20180;-82
2022/02/05 12:43:58;;;;;;;5.37;2.73;;;4.30;99.90;;;;;;5051272;28;20210;-81
2022/02/05 12:46:32;;;;;;;4.63;3.37;;;4.50;99.90;;;;;;5052648;28;20228;-83
2022/02/05 12:49:02;;;;;;;4.47;2.23;;;4.40;99.90;;;;;;5060331;28;20183;-81
2022/02/05 12:51:31;;;;;;;8.33;3.50;;;4.60;99.90;;;;;;5062284;28;20185;-81
2022/02/05 12:54:07;;;;;;;6.50;3.20;;;4.70;99.90;;;;;;5052778;28;20235;-81
2022/02/05 12:56:39;;;;;;;6.80;2.50;;;4.80;99.90;;;;;;5063831;28;20233;-82
2022/02/05 12:59:10;;;;;;;8.33;3.00;;;5.30;99.90;;;;;;5055117;28;20190;-82
2022/02/05 13:01:51;;;;;;;7.17;2.60;;;5.60;99.90;;;;;;5066787;28;20179;-80
2022/02/05 13:04:31;;;;;;;6.50;2.87;;;5.90;99.90;;;;;;5068140;28;20213;-80
2022/02/05 13:07:01;;;;;;;5.60;2.50;;;6.70;99.90;;;;;;5065302;28;20635;-82
2022/02/05 13:09:28;;;;;;;8.43;3.13;;;7.20;99.90;;;;;;5061645;28;20223;-81
2022/02/05 13:11:58;;;;;;;6.00;2.83;;;7.40;99.90;;;;;;5060260;28;20184;-82
2022/02/05 13:15:03;;;;;;;9.07;3.27;;;7.30;99.90;;;;;;5063434;28;20180;-82
2022/02/05 13:26:13;;;;;;;6.33;2.60;;;5.50;99.90;;;;;;5036699;28;20250;-81
2022/02/05 13:28:47;;;;;;;6.57;2.90;;;5.50;99.90;;;;;;5036706;28;20350;-82
2022/02/05 13:36:42;;;;;;;8.50;3.20;;;4.90;99.90;;;;;;5077836;28;20199;-80
2022/02/05 13:44:23;;;;;;;6.90;2.97;;;4.60;99.90;;;;;;5065726;28;20210;-81
2022/02/05 13:47:10;;;;;;;8.07;3.23;;;4.60;99.90;;;;;;5064099;28;20183;-81
2022/02/05 13:49:37;;;;;;;7.23;2.97;;;4.40;99.90;;;;;;5063035;28;20185;-80
2022/02/05 13:52:12;;;;;;;5.10;2.53;;;4.40;99.90;;;;;;5074569;28;20178;-82
2022/02/05 13:54:39;;;;;;;4.83;2.73;;;3.40;99.90;;;;;;5074868;28;20267;-80
2022/02/05 13:57:05;;;;;;;4.60;2.27;;;3.60;99.90;;;;;;5068300;28;20237;-80
2022/02/05 13:59:34;;;;;;;5.47;2.60;;;2.80;99.90;;;;;;5064482;28;20188;-81
2022/02/05 14:02:17;;;;;;;9.00;3.37;;;3.90;99.90;;;;;;5061562;28;20179;-80
2022/02/05 14:04:44;;;;;;;5.77;2.50;;;2.40;99.90;;;;;;5058306;28;20662;-81
2022/02/05 14:07:10;;;;;;;10.10;2.87;;;;;;;;;;5064436;28;20183;-80
2022/02/05 14:09:36;;;;;;;6.73;2.77;;;0.20;99.90;;;;;;5064187;28;20177;-81
2022/02/05 14:12:16;;;;;;;4.97;3.27;;;2.50;99.90;;;;;;5028541;28;20234;-84
2022/02/05 14:14:42;;;;;;;5.70;2.80;;;2.50;99.90;;;;;;5061982;28;20205;-80
2022/02/05 14:17:16;;;;;;;7.10;3.33;;;2.60;99.90;;;;;;5053653;28;20207;-84
2022/02/05 14:19:42;;;;;;;4.37;2.50;;;2.70;99.90;;;;;;5060794;28;20169;-80
2022/02/05 14:22:23;;;;;;;6.53;3.83;;;2.90;99.90;;;;;;5035996;28;20240;-80
2022/02/05 14:25:14;;;;;;;6.67;3.57;;;2.80;99.90;;;;;;5058041;28;20180;-81
2022/02/05 14:28:16;;;;;;;8.87;3.53;;;2.80;99.90;;;;;;5066957;28;20177;-80
2022/02/05 14:30:54;;;;;;;6.50;3.10;;;2.80;99.90;;;;;;5064496;28;20175;-80
2022/02/05 14:33:21;;;;;;;5.67;3.20;;;3.10;99.90;;;;;;5062550;28;20183;-79
2022/02/05 14:36:38;;;;;;;5.40;3.40;;;;;;;;;;5052336;28;20604;-81
2022/02/05 14:41:17;;;;;;;6.27;3.50;;;2.70;99.90;;;;;;5044956;28;20264;-81
2022/02/05 14:43:43;;;;;;;5.60;3.20;;;2.60;99.90;;;;;;5044176;28;20311;-81
2022/02/05 14:46:08;;;;;;;5.57;3.20;;;2.60;99.90;;;;;;5044332;28;20194;-80
2022/02/05 14:48:34;;;;;;;10.67;4.80;;;2.50;99.90;;;;;;5052676;28;20203;-79
2022/02/05 14:51:00;;;;;;;10.87;3.67;;;2.50;99.90;;;;;;5039106;28;20212;-80
2022/02/05 14:53:26;;;;;;;10.33;3.70;;;2.90;99.90;;;;;;5051048;28;20227;-79
2022/02/05 14:55:52;;;;;;;10.37;4.57;;;2.50;99.90;;;;;;5062987;28;20261;-79
2022/02/05 14:58:18;;;;;;;9.03;4.50;;;;;;;;;;5052193;28;20187;-80
2022/02/05 15:00:44;;;;;;;8.63;4.43;;;2.40;99.90;;;;;;5055239;28;20187;-80
2022/02/05 15:03:14;;;;;;;8.37;4.53;;;2.40;99.90;;;;;;5038347;28;20219;-79
2022/02/05 15:05:42;;;;;;;8.07;4.13;;;2.50;99.90;;;;;;5055921;28;20195;-79
2022/02/05 15:08:07;;;;;;;7.13;3.97;;;2.20;99.90;;;;;;5071772;28;20176;-81
2022/02/05 15:10:34;;;;;;;8.33;4.50;;;2.40;99.90;;;;;;5055009;28;20280;-80
2022/02/05 15:13:00;;;;;;;8.33;4.10;;;2.30;99.90;;;;;;5072958;28;20190;-80
2022/02/05 15:15:27;;;;;;;10.70;4.37;;;;;;;;;;5064246;28;20180;-80
2022/02/05 15:17:53;;;;;;;7.33;3.60;;;2.30;99.90;;;;;;5043301;28;20633;-80
2022/02/05 15:20:20;;;;;;;9.20;4.00;;;;;;;;;;5024099;28;20192;-81
2022/02/05 15:22:47;;;;;;;11.30;4.47;;;2.20;99.90;;;;;;5037595;28;20292;-80
2022/02/05 15:25:14;;;;;;;7.67;4.43;;;2.20;99.90;;;;;;5054288;28;20271;-82
2022/02/05 15:27:40;;;;;;;13.00;5.33;;;2.30;99.90;;;;;;5054232;28;20191;-80
2022/02/05 15:30:07;;;;;;;10.57;4.40;;;2.20;99.90;;;;;;5059398;28;20181;-82
2022/02/05 15:32:33;;;;;;;9.50;4.40;;;;;;;;;;5043027;28;20199;-81
2022/02/05 15:34:59;;;;;;;5.50;3.47;;;2.20;99.90;;;;;;5050925;28;20180;-80
2022/02/05 15:37:26;;;;;;;8.43;4.27;;;;;;;;;;5051652;28;20180;-80
2022/02/05 15:45:08;;;;;;;40.40;19.47;;;;;;;;;;5067373;28;20260;-80
2022/02/05 15:47:34;;;;;;;59.33;30.50;;;2.20;99.90;;;;;;5033950;28;20176;-81
2022/02/05 15:50:00;;;;;;;104.23;52.73;;;;;;;;;;5017382;28;20185;-80
2022/02/05 15:52:26;;;;;;;29.00;16.73;;;;;;;;;;5061555;28;20241;-80
2022/02/05 15:54:53;;;;;;;22.20;14.53;;;2.00;99.90;;;;;;5057002;28;20298;-80
2022/02/05 15:57:58;;;;;;;18.03;11.20;;;2.40;99.90;;;;;;5065855;28;20182;-80
2022/02/05 16:00:21;;;;;;;53.57;34.90;;;1.90;99.90;;;;;;5061361;28;20199;-81
2022/02/05 16:02:47;;;;;;;24.90;15.03;;;;;;;;;;5063204;28;20209;-81
2022/02/05 16:05:13;;;;;;;28.43;17.30;;;1.90;99.90;;;;;;5051654;28;20184;-81
2022/02/05 16:07:39;;;;;;;32.27;20.47;;;;;;;;;;5017493;28;20184;-81
2022/02/05 16:10:05;;;;;;;30.47;19.80;;;2.00;99.90;;;;;;5034049;28;20187;-81
2022/02/05 16:12:31;;;;;;;41.73;30.53;;;1.90;99.90;;;;;;5060146;28;20551;-81
2022/02/05 16:14:56;;;;;;;38.30;25.43;;;1.90;99.90;;;;;;5026844;28;20172;-82
2022/02/05 16:17:22;;;;;;;41.57;28.73;;;1.90;99.90;;;;;;5051573;28;20619;-82